Mexican Cut, RMBL, Colorado Weather observations

Data are for 10 minute period ending at time listed.
 Day   Time   Solar   Ave.   Ave.  Ave.  Vector  Max.   Baro.   Total    
  of    of     Rad.   Air    Rel.  Wind   Wind   Wind  Press.  Precip.   
Year   Day            Temp.  Hum.  Speed  Dir.   Gust                    
2015   (MST)  Kw/m2    F      %     mph   deg.    mph    mb.     in.     
-------------------------------------------------------------------------
 241    7:30   0.36   52.4    57    3.9   139     9.0   684.0    0.00 
 241    7:40   0.39   52.2    57    4.6   130    10.9   684.1    0.00 
 241    7:50   0.44   52.6    57    3.2   143     8.4   684.2    0.00 
 241    8:00   0.47   53.6    56    3.5   134     8.7   684.2    0.00 
 241    8:10   0.51   53.4    56    4.1   133    10.1   684.2    0.00 
 241    8:20   0.55   53.5    56    3.6   128     9.9   684.3    0.00 
 241    8:30   0.60   54.4    55    4.4   135    11.3   684.3    0.00 
 241    8:40   0.71   54.2    55    4.6   126    10.1   684.3    0.00 
 241    8:50   0.45   55.0    55    3.2   124     8.1   684.4    0.00 
 241    9:00   0.57   53.6    58    3.7   105    11.6   684.4    0.00 
 241    9:10   0.72   54.2    57    3.7    91     8.6   684.4    0.00 
 241    9:20   0.77   55.0    56    3.8   109     7.2   684.5    0.00 
 241    9:30   0.65   55.0    56    4.2   113     9.8   684.5    0.00 
 241    9:40   0.83   55.0    55    2.9   103     7.6   684.6    0.00 
 241    9:50   0.86   56.5    53    3.0   102     7.3   684.6    0.00 
 241   10:00   0.96   57.0    52    3.8    97    10.2   684.6    0.00 
 241   10:10   0.92   57.6    44    3.7   196     8.0   684.6    0.00 
 241   10:20   0.97   58.4    45    2.6   267    11.2   684.6    0.00 
 241   10:30   0.57   56.1    42    4.9   272    13.7   684.7    0.00 
 241   10:40   0.30   55.6    43    4.0   229     8.2   684.7    0.00 
 241   10:50   0.29   55.4    42    3.3   181     9.0   684.7    0.00 
 241   11:00   0.30   55.9    44    0.8    49     3.0   684.6    0.00 
 241   11:10   0.34   55.8    44    1.6   325     6.8   684.6    0.00 
 241   11:20   0.65   55.9    44    2.5     6     6.9   684.5    0.00 
 241   11:30   0.48   56.4    40    4.3   329     8.3   684.4    0.00 
 241   11:40   0.25   55.7    44    2.8   345     8.5   684.4    0.00 
 241   11:50   0.32   55.3    44    2.6   337     6.6   684.4    0.00 
 241   12:00   0.36   55.8    42    2.6   318     5.3   684.3    0.00 
 241   12:10   0.44   56.3    41    2.4   327     6.3   684.2    0.00 
 241   12:20   0.48   56.7    40    2.6   329     5.8   684.3    0.00 
 241   12:30   0.49   57.1    40    2.0   346     5.0   684.1    0.00 
 241   12:40   0.78   58.0    38    1.4   294     6.0   684.1    0.00 
 241   12:50   0.90   58.9    39    3.8   334    10.9   684.0    0.00 
 241   13:00   0.79   58.1    40    5.3   242    10.0   684.1    0.00 
 241   13:10   0.77   57.9    41    3.5   263    11.4   684.1    0.00 
 241   13:20   0.65   58.2    42    4.5   295    10.1   684.1    0.00 
 241   13:30   0.49   57.7    42    4.2   290     9.9   684.0    0.00 
 241   13:40   0.45   57.4    44    3.8   288    10.5   684.0    0.00 
 241   13:50   0.53   57.3    41    4.5   314     8.0   684.0    0.00 
 241   14:00   0.63   57.7    40    4.2   280    10.3   683.8    0.00 
 241   14:10   0.79   58.5    39    4.2   314     9.8   683.7    0.00 
 241   14:20   0.84   58.9    39    4.1   292     9.1   683.6    0.00 
 241   14:30   0.83   60.4    35    3.7   296    11.3   683.6    0.00 
 241   14:40   0.80   59.6    38    4.8   280    12.6   683.5    0.00 
 241   14:50   0.76   58.8    39    4.4   325    11.3   683.4    0.00 
 241   15:00   0.74   58.9    37    5.4   294    16.1   683.3    0.00 
 241   15:10   0.70   60.0    36    2.9   319     7.8   683.1    0.00 
 241   15:20   0.62   60.4    36    2.0   300     5.8   683.1    0.00 
 241   15:30   0.64   59.9    36    4.6   268     9.7   683.1    0.00 
 241   15:40   0.59   59.5    37    3.7   297     7.2   683.1    0.00 
 241   15:50   0.56   59.4    37    4.7   265     9.9   683.1    0.00 
 241   16:00   0.54   59.6    37    5.2   273    10.8   683.1    0.00 
 241   16:10   0.51   60.2    36    2.4   254     6.9   683.0    0.00 
 241   16:20   0.47   60.2    36    2.9   137     6.7   683.0    0.00 
 241   16:30   0.43   60.8    34    3.4   186     9.8   682.9    0.00 
 241   16:40   0.39   60.2    35    1.6   111     4.8   682.8    0.00 
 241   16:50   0.35   60.5    35    1.6   175     4.8   682.8    0.00 
 241   17:00   0.32   61.3    34    1.2   206     4.7   682.8    0.00 
 241   17:10   0.15   59.1    34    3.1   179    10.4   682.8    0.00 
 241   17:20   0.04   57.2    37    2.4   216     8.2   682.8    0.00 
 241   17:30   0.04   56.5    37    2.7   210     6.8   682.8    0.00 
 241   17:40   0.04   56.4    36    4.4   276    12.5   682.7    0.00 
 241   17:50   0.03   56.6    35    3.3   300     7.8   682.7    0.00 
 241   18:00   0.03   56.2    36    1.6   167     6.1   682.6    0.00 
 241   18:10   0.02   55.1    37    1.3   211     6.5   682.6    0.00 
 241   18:20   0.01   55.0    36    1.6   316     4.8   682.6    0.00 
 241   18:30   0.01   54.1    38    1.7    82     3.9   682.6    0.00 
 241   18:40   0.00   54.5    33    1.0    79     4.2   682.5    0.00 
 241   18:50   0.00   53.8    36    1.2   204     4.2   682.5    0.00 
 241   19:00   0.00   53.1    36    1.8    46     6.6   682.5    0.00 
 241   19:10   0.00   52.4    39    1.1    50     3.7   682.4    0.00 
 241   19:20   0.00   52.0    38    0.9   281     3.6   682.5    0.00 
 241   19:30   0.00   53.1    34    3.2   301     7.6   682.5    0.00 
 241   19:40   0.00   54.4    34    2.3    84     7.3   682.5    0.00 
 241   19:50   0.00   52.7    37    1.4   159     4.1   682.6    0.00 
 241   20:00   0.00   51.2    40    0.8    98     2.6   682.6    0.00 
 241   20:10   0.00   51.6    36    1.7   292     5.8   682.6    0.00 
 241   20:20   0.00   53.4    34    0.8   265     2.5   682.7    0.00 
 241   20:30   0.00   53.5    33    1.1   200     4.6   682.7    0.00 
 241   20:40   0.00   52.3    37    1.0   237     3.2   682.7    0.00 
 241   20:50   0.00   51.4    37    1.0   200     3.2   682.7    0.00 
 241   21:00   0.00   51.1    38    1.1   214     2.7   682.7    0.00 
 241   21:10   0.00   50.0    39    0.7   186     2.8   682.7    0.00 
 241   21:20   0.00   50.0    40    1.6   219     3.8   682.7    0.00 
 241   21:30   0.00   51.5    36    1.8   175     4.7   682.7    0.00 
 241   21:40   0.00   51.5    38    1.6   217     4.5   682.6    0.00 
 241   21:50   0.00   51.5    37    1.3   204     2.3   682.5    0.00 
 241   22:00   0.00   50.6    38    1.1   161     3.0   682.5    0.00 
 241   22:10   0.00   51.0    38    1.5   220     6.9   682.5    0.00 
 241   22:20   0.00   52.5    34    1.1   252     4.2   682.4    0.00 
 241   22:30   0.00   51.4    38    1.4   228     3.1   682.4    0.00 
 241   22:40   0.00   51.3    38    2.0   209     6.9   682.4    0.00 
 241   22:50   0.00   52.3    35    2.6   201     5.9   682.3    0.00 
 241   23:00   0.00   52.8    35    3.2   203     7.1   682.3    0.00 
 241   23:10   0.00   52.0    38    2.9   203     4.8   682.4    0.00 
 241   23:20   0.00   50.9    40    2.6   201     5.3   682.4    0.00 
 241   23:30   0.00   50.3    40    2.4   194     4.2   682.4    0.00 
 241   23:40   0.00   50.1    41    2.6   189     4.5   682.3    0.00 
 241   23:50   0.00   50.5    40    2.9   184     6.6   682.2    0.00 
 242    0:00   0.00   50.6    40    2.6   191     5.9   682.2    0.00 
 242    0:10   0.00   50.3    40    2.8   183     5.6   682.1    0.00 
 242    0:20   0.00   50.1    41    2.3   202     4.2   682.1    0.00 
 242    0:30   0.00   50.1    42    2.8   212     4.7   682.0    0.00 
 242    0:40   0.00   50.1    41    3.1   189     6.3   682.0    0.00 
 242    0:50   0.00   50.3    40    2.9   195     6.4   681.9    0.00 
 242    1:00   0.00   51.3    38    3.8   183     6.9   681.8    0.00 
 242    1:10   0.00   52.1    37    4.0   186     8.3   681.9    0.00 
 242    1:20   0.00   52.6    36    4.4   165     8.5   681.8    0.00 
 242    1:30   0.00   52.4    38    2.8   213    10.7   681.8    0.00 
 242    1:40   0.00   51.3    40    3.0   204     9.2   681.8    0.00 
 242    1:50   0.00   52.0    40    3.0   196     9.5   681.8    0.00 
 242    2:00   0.00   51.8    40    2.7   178     6.6   681.8    0.00 
 242    2:10   0.00   50.9    41    3.0   176     6.8   681.8    0.00 
 242    2:20   0.00   49.7    44    2.6   190     5.0   681.7    0.00 
 242    2:30   0.00   49.7    44    3.4   179     7.3   681.7    0.00 
 242    2:40   0.00   50.3    44    1.3   249     3.1   681.7    0.00 
 242    2:50   0.00   50.4    45    1.4   242     5.1   681.7    0.00 
 242    3:00   0.00   50.9    44    1.0   253     4.8   681.6    0.00 
 242    3:10   0.00   49.2    49    1.1   213     2.3   681.7    0.00 
 242    3:20   0.00   47.5    52    0.7   245     2.3   681.7    0.00 
 242    3:30   0.00   46.7    53    1.1   214     2.2   681.7    0.00 
 242    3:40   0.00   46.7    53    1.6   233     3.4   681.8    0.00 
 242    3:50   0.00   47.5    52    1.6   198     3.4   681.8    0.00 
 242    4:00   0.00   48.1    51    1.3   280     4.4   681.8    0.00 
 242    4:10   0.00   48.9    49    1.2   253     4.1   681.8    0.00 
 242    4:20   0.00   48.9    50    1.8   297     4.4   681.7    0.00 
 242    4:30   0.00   49.2    49    1.6   261     5.1   681.7    0.00 
 242    4:40   0.00   49.3    48    1.6   218     4.7   681.7    0.00 
 242    4:50   0.00   49.7    46    2.4   199     6.6   681.6    0.00 
 242    5:00   0.00   50.7    45    2.9   243     9.2   681.7    0.00 
 242    5:10   0.00   50.3    46    2.0    35     6.7   681.8    0.00 
 242    5:20   0.00   50.8    44    2.6   224    10.6   681.8    0.00 
 242    5:30   0.00   51.8    41    2.9   273    12.6   681.9    0.00 
 242    5:40   0.00   51.2    43    2.4   233     6.9   681.9    0.00 
 242    5:50   0.01   51.7    42    5.3   185    15.6   682.0    0.00 
 242    6:00   0.01   52.0    42    4.2   184    12.7   682.0    0.00 
 242    6:10   0.07   52.2    43    5.6   189    14.5   682.1    0.00 
 242    6:20   0.10   53.2    42    5.3   189    14.2   682.1    0.00 
 242    6:30   0.15   54.2    41    6.4   178    17.1   682.2    0.00 
 242    6:40   0.19   55.0    41    3.9   202    13.7   682.3    0.00 
 242    6:50   0.20   55.0    43    7.3   181    17.9   682.4    0.00 
 242    7:00   0.18   54.5    44    6.4   185    14.5   682.4    0.00 
 242    7:10   0.19   54.2    45    6.3   177    14.8   682.3    0.00 
 242    7:20   0.12   53.9    46    6.0   185    15.3   682.5    0.00 

Return to Mexican Cut, RMBL, Colorado graphs page.


Western Regional Climate Center,wrcc@dri.edu